createdAt,value
2018-02-22T00:03:04.366Z,33.37
2018-02-22T00:13:18.213Z,41.50
2018-02-22T00:18:23.108Z,51.07
2018-02-22T00:23:26.716Z,48.10
2018-02-22T00:28:29.424Z,46.97
2018-02-22T00:33:32.984Z,46.70
2018-02-22T00:38:38.683Z,37.30
2018-02-22T00:43:44.678Z,46.03
2018-02-22T00:48:47.640Z,52.40
2018-02-22T00:53:50.758Z,50.90
2018-02-22T00:58:55.044Z,52.07
2018-02-22T01:09:08.110Z,40.30
2018-02-22T01:14:11.446Z,48.50
2018-02-22T01:19:17.386Z,51.30
2018-02-22T01:29:28.811Z,53.53
2018-02-22T01:34:33.095Z,44.50
2018-02-22T01:39:36.746Z,54.83
2018-02-22T01:44:41.255Z,26.90
2018-02-22T01:59:59.057Z,42.43
2018-02-22T02:05:04.028Z,49.40
2018-02-22T02:10:07.838Z,55.40
2018-02-22T02:15:11.494Z,57.20
2018-02-22T02:20:14.812Z,65.43
2018-02-22T02:25:22.069Z,54.13
2018-02-22T02:30:28.889Z,37.97
2018-02-22T02:40:42.454Z,44.97
2018-02-22T02:45:45.581Z,67.90
2018-02-22T02:50:49.078Z,47.90
2018-02-22T02:55:56.309Z,46.13
2018-02-22T03:01:00.583Z,48.57
2018-02-22T03:06:06.101Z,47.20
2018-02-22T03:11:10.665Z,52.77
2018-02-22T03:16:14.295Z,49.03
2018-02-22T03:21:18.888Z,70.27
2018-02-22T03:26:26.821Z,63.20
2018-02-22T03:31:30.022Z,34.47
2018-02-22T03:36:32.999Z,55.07
2018-02-22T03:41:36.893Z,39.73
2018-02-22T03:46:39.932Z,55.20
2018-02-22T03:51:44.315Z,51.97
2018-02-22T03:56:48.112Z,35.23
2018-02-22T04:07:02.118Z,48.93
2018-02-22T04:12:06.373Z,63.80
2018-02-22T04:17:11.032Z,50.40
2018-02-22T04:22:24.845Z,49.10
2018-02-22T04:32:36.072Z,27.63
2018-02-22T04:47:56.479Z,57.00
2018-02-22T04:53:00.263Z,30.53
2018-02-22T04:58:05.862Z,57.13
2018-02-22T05:13:29.866Z,53.80
2018-02-22T05:23:40.450Z,54.93
2018-02-22T05:28:46.161Z,44.97
2018-02-22T05:33:49.456Z,53.33
2018-02-22T05:38:55.199Z,18.57
2018-02-22T05:49:07.735Z,64.63
2018-02-22T05:54:12.202Z,50.73
2018-02-22T05:59:15.602Z,50.77
2018-02-22T06:04:19.259Z,54.43
2018-02-22T06:09:22.229Z,50.80
2018-02-22T06:14:25.051Z,47.33
2018-02-22T06:19:27.814Z,43.77
2018-02-22T06:24:32.414Z,67.57
2018-02-22T06:29:35.492Z,45.67
2018-02-22T06:34:38.365Z,37.30
2018-02-22T06:39:42.323Z,40.90
2018-02-22T06:44:45.341Z,40.43
2018-02-22T06:49:49.515Z,40.53
2018-02-22T06:54:55.481Z,40.77
2018-02-22T06:59:59.986Z,40.17
2018-02-22T07:05:03.971Z,47.60
2018-02-22T07:10:07.732Z,49.23
2018-02-22T07:15:11.219Z,31.90
2018-02-22T07:20:15.730Z,17.60
2018-02-22T07:25:20.172Z,43.77
2018-02-22T07:30:23.671Z,39.67
2018-02-22T07:35:27.223Z,40.13
2018-02-22T07:40:32.058Z,36.07
2018-02-22T07:45:37.499Z,54.37
2018-02-22T07:55:52.848Z,37.03
2018-02-22T08:00:57.576Z,46.53
2018-02-22T08:06:02.729Z,48.17
2018-02-22T08:11:09.247Z,42.73
2018-02-22T08:16:15.486Z,44.63
2018-02-22T08:21:19.453Z,32.77
2018-02-22T08:26:26.225Z,42.83
2018-02-22T08:31:30.116Z,49.60
2018-02-22T08:36:34.743Z,47.60
2018-02-22T08:41:40.028Z,26.97
2018-02-22T08:46:44.285Z,30.07
2018-02-22T08:51:48.556Z,38.10
2018-02-22T08:56:52.545Z,24.67
2018-02-22T09:17:18.688Z,36.10
2018-02-22T09:22:25.478Z,30.43
2018-02-22T09:27:32.373Z,28.73
2018-02-22T09:32:35.404Z,38.10
2018-02-22T09:42:46.114Z,46.87
2018-02-22T09:47:50.514Z,41.70
2018-02-22T09:52:55.663Z,30.27
2018-02-22T09:57:59.940Z,31.20
2018-02-22T10:03:04.504Z,34.20
2018-02-22T10:08:08.221Z,26.90
2018-02-22T10:13:14.178Z,41.27
2018-02-22T10:18:18.908Z,39.00
2018-02-22T10:23:21.852Z,32.87
2018-02-22T10:28:24.953Z,35.00
2018-02-22T10:33:29.020Z,33.80
2018-02-22T10:38:33.236Z,39.33
2018-02-22T10:43:40.349Z,39.00
2018-02-22T10:48:45.259Z,29.63
2018-02-22T10:53:48.538Z,31.70
2018-02-22T10:58:57.996Z,38.20
2018-02-22T11:09:14.399Z,28.63
2018-02-22T11:14:17.573Z,37.93
2018-02-22T11:19:22.695Z,39.27
2018-02-22T11:24:27.454Z,42.90
2018-02-22T11:34:40.978Z,52.67
2018-02-22T11:55:14.366Z,46.60
2018-02-22T12:00:20.378Z,38.10
2018-02-22T12:10:33.215Z,26.07
2018-02-22T12:20:48.464Z,21.07
2018-02-22T12:25:52.429Z,30.00
2018-02-22T12:30:56.008Z,32.43
2018-02-22T12:36:01.067Z,34.90
2018-02-22T12:41:05.804Z,27.47
2018-02-22T12:46:13.497Z,36.60
2018-02-22T12:51:18.170Z,32.20
2018-02-22T13:01:31.352Z,35.27
2018-02-22T13:06:35.457Z,29.20
2018-02-22T13:11:39.926Z,20.10
2018-02-22T13:16:49.067Z,32.40
2018-02-22T13:21:55.524Z,32.53
2018-02-22T13:27:04.054Z,29.70
2018-02-22T13:32:12.350Z,24.90
2018-02-22T13:37:32.292Z,24.03
2018-02-22T13:42:39.114Z,34.93
2018-02-22T13:47:43.185Z,27.90
2018-02-22T13:52:56.626Z,37.93
2018-02-22T14:03:18.339Z,26.60
2018-02-22T14:08:35.479Z,32.73
2018-02-22T14:13:39.484Z,34.93
2018-02-22T14:18:44.270Z,29.93
2018-02-22T14:23:48.927Z,31.07
2018-02-22T14:28:56.358Z,25.80
2018-02-22T14:33:59.429Z,36.20
2018-02-22T14:39:06.836Z,24.40
2018-02-22T14:44:11.213Z,27.00
2018-02-22T14:49:17.550Z,29.20
2018-02-22T14:59:45.676Z,21.50
2018-02-22T15:10:04.491Z,19.43
2018-02-22T15:20:19.470Z,24.00
2018-02-22T15:25:25.208Z,21.50
2018-02-22T15:35:35.331Z,18.03
2018-02-22T15:45:46.998Z,19.60
2018-02-22T15:56:01.799Z,17.30
2018-02-22T16:01:05.162Z,20.60
2018-02-22T16:06:09.863Z,28.27
2018-02-22T16:11:13.392Z,25.60
2018-02-22T16:16:18.011Z,18.70
2018-02-22T16:21:25.184Z,23.03
2018-02-22T16:26:39.091Z,22.00
2018-02-22T16:31:42.706Z,28.50
2018-02-22T16:36:54.185Z,29.03
2018-02-22T16:41:57.311Z,22.87
2018-02-22T16:47:03.662Z,19.10
2018-02-22T16:52:06.344Z,23.90
2018-02-22T16:57:09.009Z,15.47
2018-02-22T17:02:15.403Z,26.77
2018-02-22T17:07:22.007Z,15.80
2018-02-22T17:17:43.717Z,17.00
2018-02-22T17:22:47.316Z,20.03
2018-02-22T17:27:57.424Z,16.63
2018-02-22T17:33:00.227Z,20.73
2018-02-22T17:38:07.501Z,15.50
2018-02-22T17:43:14.323Z,16.20
2018-02-22T17:48:18.003Z,18.27
2018-02-22T17:53:22.950Z,17.20
2018-02-22T17:58:25.877Z,21.47
2018-02-22T18:03:31.345Z,17.70
2018-02-22T18:08:34.375Z,23.53
2018-02-22T18:13:40.451Z,14.40
2018-02-22T18:18:45.852Z,18.70
2018-02-22T18:23:50.142Z,19.47
2018-02-22T18:28:53.233Z,26.03
2018-02-22T18:33:59.703Z,17.30
2018-02-22T18:39:11.766Z,26.40
2018-02-22T18:44:21.535Z,19.40
2018-02-22T18:49:25.343Z,16.40
2018-02-22T18:54:30.765Z,17.50
2018-02-22T18:59:35.624Z,24.97
2018-02-22T19:04:39.193Z,17.93
2018-02-22T19:09:44.019Z,25.57
2018-02-22T19:14:47.485Z,15.40
2018-02-22T19:19:54.364Z,16.67
2018-02-22T19:24:59.111Z,22.67
2018-02-22T19:30:06.395Z,23.27
2018-02-22T19:35:09.876Z,18.13
2018-02-22T19:40:14.283Z,23.80
2018-02-22T19:45:16.988Z,17.80
2018-02-22T19:50:19.778Z,27.00
2018-02-22T19:55:22.712Z,20.23
2018-02-22T20:00:25.688Z,19.73
2018-02-22T20:05:30.386Z,28.87
2018-02-22T20:10:35.246Z,17.07
2018-02-22T20:15:39.968Z,17.63
2018-02-22T20:20:45.436Z,23.60
2018-02-22T20:25:49.383Z,13.90
2018-02-22T20:30:56.192Z,22.40
2018-02-22T20:36:01.863Z,24.30
2018-02-22T20:41:05.272Z,24.60
2018-02-22T20:46:10.855Z,28.10
2018-02-22T20:56:23.000Z,23.70
2018-02-22T21:01:26.594Z,27.70
2018-02-22T21:06:30.075Z,25.10
2018-02-22T21:11:33.726Z,31.80
2018-02-22T21:16:38.118Z,21.37
2018-02-22T21:26:52.384Z,25.10
2018-02-22T21:31:56.626Z,22.47
2018-02-22T21:36:59.926Z,30.67
2018-02-22T21:42:03.594Z,22.80
2018-02-22T21:52:15.029Z,23.43
2018-02-22T21:57:18.313Z,19.47
2018-02-22T22:02:24.000Z,16.87
2018-02-22T22:07:28.820Z,30.47
2018-02-22T22:12:35.062Z,26.00
2018-02-22T22:17:38.336Z,34.43
2018-02-22T22:22:44.255Z,24.67
2018-02-22T22:27:47.627Z,24.63
2018-02-22T22:32:55.462Z,29.57
2018-02-22T22:37:59.488Z,22.23
2018-02-22T22:43:06.037Z,27.83
2018-02-22T22:48:10.550Z,23.77
2018-02-22T22:53:20.933Z,17.57
2018-02-22T22:58:24.002Z,23.33
2018-02-22T23:03:27.762Z,25.80
2018-02-22T23:08:32.745Z,29.50
2018-02-22T23:13:37.123Z,22.13
2018-02-22T23:18:40.336Z,25.70
2018-02-22T23:23:43.990Z,22.33
2018-02-22T23:28:47.383Z,28.37
2018-02-22T23:33:53.797Z,19.70
2018-02-22T23:38:57.796Z,25.07
2018-02-22T23:49:08.985Z,30.97
2018-02-22T23:54:12.185Z,22.07
2018-02-22T23:59:16.538Z,31.73
